LTBULTBS

Guest
Details From LTBU - Corlu
To LTBS - Dalaman
Flight Number -
Tags Generated
Created
Modified
Stats Distance 269 nm / 499 km
Max Altitude 0 ft / 0 m
Waypoints 3
Social Downloads 0
Likes 0
Share VATSIM

Download

Looking for another format? Having issues loading an existing format? Contact us
Advertisement - Login to hide

Notes

Generated

Route

LTBU DAL34 LTBS

ID Type Via Altitude Latitude Longitude Leg Dist Tot Dist Heading (true) Name
O LTBU APT - 0 ft / 0 m 41.12942˚ 27.90528˚ - 0 nm - -
DAL34 FIX - 0 ft / 0 m 36.82023˚ 28.74738˚ 261 nm 261 nm 171° / 172° -
O LTBS APT - 0 ft / 0 m 36.70016˚ 28.78809˚ 7 nm 269 nm 165° / 165° -

Altitude Profile

Advertisement - Login to hide

Weather


0- 5 10 15 20 25 30 35+ Temperature / ° C

Clouds and Precipitation
Forecast for 2017-12-13 06:00 UTC. Updated 37 minutes ago

Ground ~20,000 ft ~40,000 ft Winds

LTBU

Details ICAO LTBU (TEQ)
Name CORLU
Region Turkey
Timezone Europe/Istanbul (UTC+3.0)
Stats Elevation 574 ft / 175 m (AMSL)
Location 41.138250° 27.918944°
Runways 1
Magnetic Variation 5.345° E

METAR

LTBU 130320Z 24002KT 0600 R05/0300D R23/0500N BCFG FEW002 07/07 Q1019

Decode

TAF

TAF AMD LTBU 130201Z 1302/1324 21008KT CAVOK TEMPO 1302/1306 1200 BCFG SCT010=

Decode

Departure Runways

ID Width Length Bearing (true) Bearing (mag) Surface Threshold Offset Overrun Length
05 148 ft / 45 m 9,899 ft / 3,017 m 49.36° 44.01° Concrete 0 ft / 0 m 458 ft / 140 m
23 148 ft / 45 m 9,899 ft / 3,017 m 229.37° 224.02° Concrete 0 ft / 0 m 495 ft / 151 m

LTBS

Details ICAO LTBS (DLM)
Name DALAMAN
Region Turkey
Timezone Europe/Istanbul (UTC+3.0)
Stats Elevation 20 ft / 6 m (AMSL)
Location 36.713189° 28.792513°
Runways 1
Magnetic Variation 4.879° E

METAR

LTBS 130320Z 07003KT 050V110 CAVOK 11/07 Q1020 NOSIG

Decode

TAF

Not found

Destination Runways

ID Width Length Bearing (true) Bearing (mag) Surface Threshold Offset Overrun Length
01 148 ft / 45 m 9,851 ft / 3,003 m 15.24° 10.36° Concrete 0 ft / 0 m 197 ft / 60 m
19 148 ft / 45 m 9,851 ft / 3,003 m 195.25° 190.37° Concrete 0 ft / 0 m 197 ft / 60 m

Popular Alternatives